College Hill, Texas
Current Conditions -  °F | °C
As of 2:35 PM on Thursday 27 Nov 2014 (Local Time) from KOSA Reporting Station
Overcast Overcast  
Wind Chill: 57°   Ceiling: 700
Heat Index: 57°   Visibility: 1.5mi
Dew Point: 22°   Wind: 5mph
Humidity: 25%   Direction: 80°E
Pressure: 30.46"   Gusts: NA
Location:  33.4703°N, 94.6281°W
Report Text: KOSA 272035Z AUTO 08004KT 1 1/2SM VV007 14/M06 A3046 RMK AO1 T01411057
Loading
Personal Weather Stations






























Interactive Weather Map New forecast layout! Learn more

10-Day Weather Forecast

Advertisements
Track Severe Weather on mobile